HECA/CAI METAR and TAF weather

Enter ICAO airport designator
Station Type Date Time Source
HECA METAR 2021/05/13 05:00 UTC NOAA

HECA 130500Z 03006KT CAVOK 19/15 Q1012 NOSIG


Station Type Date Time Source
HECA Decoded METAR 2021/05/13 05:00 UTC NOAA

Cairo Airport, Egypt (HECA) 30-08N 031-24E 74M
May 13, 2021 - 01:00 AM EDT / 2021.05.13 0500 UTC
Wind: from the NNE (030 degrees) at 7 MPH (6 KT):0
Visibility: greater than 7 mile(s):0
Temperature: 66 F (19 C)
Dew Point: 59 F (15 C)
Relative Humidity: 77%
Pressure (altimeter): 29.88 in. Hg (1012 hPa)
ob: HECA 130500Z 03006KT CAVOK 19/15 Q1012 NOSIG
cycle: 5

Station Type Date Time Source
HECA TAF 2021/05/13 06:55 UTC NOAA

TAF HECA 130500Z 1306/1412 05008KT CAVOK

Example: see airport list